createdAt,value
2023-01-03T00:00:23.689Z,0
2023-01-03T00:01:24.303Z,0
2023-01-03T00:02:25.924Z,0
2023-01-03T00:03:26.408Z,0
2023-01-03T00:04:27.050Z,0
2023-01-03T00:05:27.717Z,0
2023-01-03T00:06:28.308Z,0
2023-01-03T00:07:28.911Z,0
2023-01-03T00:08:29.551Z,0
2023-01-03T00:09:30.162Z,0
2023-01-03T00:10:31.683Z,0
2023-01-03T00:11:32.393Z,0
2023-01-03T00:12:32.993Z,0
2023-01-03T00:13:33.601Z,0
2023-01-03T00:14:35.056Z,0
2023-01-03T00:15:35.662Z,0
2023-01-03T00:16:36.369Z,0
2023-01-03T00:17:37.019Z,0
2023-01-03T00:18:37.618Z,0
2023-01-03T00:19:38.227Z,0
2023-01-03T00:20:38.841Z,0
2023-01-03T00:21:39.448Z,0
2023-01-03T00:22:40.126Z,0
2023-01-03T00:23:40.808Z,0
2023-01-03T00:24:41.401Z,0
2023-01-03T00:25:42.108Z,0
2023-01-03T00:26:42.706Z,0
2023-01-03T00:27:43.311Z,0
2023-01-03T00:28:43.911Z,0
2023-01-03T00:29:44.595Z,0
2023-01-03T00:30:45.335Z,0
2023-01-03T00:31:45.999Z,0
2023-01-03T00:32:46.589Z,0
2023-01-03T00:33:48.114Z,0
2023-01-03T00:34:48.765Z,0
2023-01-03T00:35:50.223Z,0
2023-01-03T00:36:50.840Z,0
2023-01-03T00:37:51.426Z,0
2023-01-03T00:38:52.025Z,0
2023-01-03T00:39:52.639Z,0
2023-01-03T00:40:53.237Z,0
2023-01-03T00:41:53.838Z,0
2023-01-03T00:42:54.432Z,0
2023-01-03T00:43:55.035Z,0
2023-01-03T00:44:55.636Z,0
2023-01-03T00:45:56.324Z,0
2023-01-03T00:46:56.938Z,0
2023-01-03T00:47:57.556Z,0
2023-01-03T00:48:58.213Z,0
2023-01-03T00:49:59.670Z,0
2023-01-03T00:51:00.267Z,0
2023-01-03T00:52:00.886Z,0
2023-01-03T00:53:01.493Z,0
2023-01-03T00:54:02.089Z,0
2023-01-03T00:55:02.682Z,0
2023-01-03T00:56:03.290Z,0
2023-01-03T00:57:03.902Z,0
2023-01-03T00:58:04.574Z,0
2023-01-03T00:59:05.174Z,0
2023-01-03T01:00:05.793Z,0
2023-01-03T01:01:06.502Z,0
2023-01-03T01:02:07.381Z,0
2023-01-03T01:03:08.430Z,0
2023-01-03T01:04:08.792Z,0
2023-01-03T01:05:09.461Z,0
2023-01-03T01:06:10.140Z,0
2023-01-03T01:07:10.729Z,0
2023-01-03T01:08:11.335Z,0
2023-01-03T01:09:11.936Z,0
2023-01-03T01:10:12.540Z,0
2023-01-03T01:11:13.140Z,0
2023-01-03T01:12:13.746Z,0
2023-01-03T01:13:14.421Z,0
2023-01-03T01:14:15.030Z,0
2023-01-03T01:15:15.642Z,0
2023-01-03T01:16:16.355Z,0
2023-01-03T01:17:22.447Z,0
2023-01-03T01:18:18.594Z,0
2023-01-03T01:19:19.198Z,0
2023-01-03T01:20:19.839Z,0
2023-01-03T01:21:20.445Z,0
2023-01-03T01:22:21.061Z,0
2023-01-03T01:23:21.680Z,0
2023-01-03T01:24:22.297Z,0
2023-01-03T01:25:22.891Z,0
2023-01-03T01:26:23.498Z,0
2023-01-03T01:27:24.097Z,0
2023-01-03T01:28:24.707Z,0
2023-01-03T01:29:25.315Z,0
2023-01-03T01:30:25.910Z,0
2023-01-03T01:31:26.704Z,0
2023-01-03T01:32:27.355Z,0
2023-01-03T01:33:28.025Z,0
2023-01-03T01:34:28.627Z,0
2023-01-03T01:35:29.301Z,0
2023-01-03T01:36:29.928Z,0
2023-01-03T01:37:31.424Z,0
2023-01-03T01:38:32.081Z,0
2023-01-03T01:39:32.730Z,0
2023-01-03T01:40:33.337Z,0
2023-01-03T01:41:33.937Z,0
2023-01-03T01:42:34.546Z,0
2023-01-03T01:43:35.296Z,0
2023-01-03T01:44:35.902Z,0
2023-01-03T01:45:36.503Z,0
2023-01-03T01:46:37.162Z,0
2023-01-03T01:47:37.913Z,0
2023-01-03T01:48:38.524Z,0
2023-01-03T01:49:39.124Z,0
2023-01-03T01:50:39.733Z,0
2023-01-03T01:51:40.333Z,0
2023-01-03T01:52:41.790Z,0
2023-01-03T01:53:42.389Z,0
2023-01-03T01:54:42.994Z,0
2023-01-03T01:55:43.597Z,0
2023-01-03T01:56:45.068Z,0
2023-01-03T01:57:45.669Z,0
2023-01-03T01:58:46.290Z,0
2023-01-03T01:59:46.893Z,0
2023-01-03T02:00:47.498Z,0
2023-01-03T02:01:48.180Z,0
2023-01-03T02:02:48.917Z,0
2023-01-03T02:03:49.651Z,0
2023-01-03T02:04:50.276Z,0
2023-01-03T02:05:50.874Z,0
2023-01-03T02:06:51.479Z,0
2023-01-03T02:07:52.085Z,0
2023-01-03T02:08:53.560Z,0
2023-01-03T02:09:54.248Z,0
2023-01-03T02:10:54.849Z,0
2023-01-03T02:11:55.449Z,0
2023-01-03T02:12:56.064Z,0
2023-01-03T02:13:56.662Z,0
2023-01-03T02:14:57.260Z,0
2023-01-03T02:15:57.917Z,0
2023-01-03T02:16:58.560Z,0
2023-01-03T02:17:59.177Z,0
2023-01-03T02:18:59.808Z,0
2023-01-03T02:20:01.206Z,0
2023-01-03T02:21:01.812Z,0
2023-01-03T02:22:02.410Z,0
2023-01-03T02:23:03.016Z,0
2023-01-03T02:24:03.620Z,0
2023-01-03T02:25:04.272Z,0
2023-01-03T02:26:04.865Z,0
2023-01-03T02:27:05.471Z,0
2023-01-03T02:28:06.076Z,0
2023-01-03T02:29:06.682Z,0
2023-01-03T02:30:07.278Z,0
2023-01-03T02:31:07.987Z,0
2023-01-03T02:32:08.630Z,0
2023-01-03T02:33:09.246Z,0
2023-01-03T02:34:09.841Z,0
2023-01-03T02:35:10.450Z,0
2023-01-03T02:36:11.051Z,0
2023-01-03T02:37:11.659Z,0
2023-01-03T02:38:12.259Z,0
2023-01-03T02:39:12.894Z,0
2023-01-03T02:40:14.414Z,0
2023-01-03T02:41:15.071Z,0
2023-01-03T02:42:15.671Z,0
2023-01-03T02:43:16.282Z,0
2023-01-03T02:44:16.883Z,0
2023-01-03T02:45:17.635Z,0
2023-01-03T02:46:18.353Z,0
2023-01-03T02:47:19.020Z,0
2023-01-03T02:48:19.619Z,0
2023-01-03T02:49:20.600Z,0
2023-01-03T02:50:21.185Z,0
2023-01-03T02:51:21.789Z,0
2023-01-03T02:52:22.390Z,0
2023-01-03T02:53:22.996Z,0
2023-01-03T02:54:23.599Z,0
2023-01-03T02:55:24.208Z,0
2023-01-03T02:56:24.805Z,0
2023-01-03T02:57:25.412Z,0
2023-01-03T02:58:26.861Z,0
2023-01-03T02:59:28.319Z,0
2023-01-03T03:00:28.928Z,0
2023-01-03T03:01:29.747Z,0
2023-01-03T03:02:30.561Z,0
2023-01-03T03:03:31.356Z,0
2023-01-03T03:04:31.965Z,0
2023-01-03T03:05:32.612Z,0
2023-01-03T03:06:33.224Z,0
2023-01-03T03:07:33.827Z,0
2023-01-03T03:08:34.424Z,0
2023-01-03T03:09:35.031Z,0
2023-01-03T03:10:35.648Z,0
2023-01-03T03:11:36.240Z,0
2023-01-03T03:12:36.837Z,0
2023-01-03T03:13:37.574Z,0
2023-01-03T03:14:38.207Z,0
2023-01-03T03:15:38.883Z,0
2023-01-03T03:16:39.512Z,0
2023-01-03T03:17:40.154Z,0
2023-01-03T03:18:40.745Z,0
2023-01-03T03:19:41.365Z,0
2023-01-03T03:20:41.955Z,0
2023-01-03T03:21:42.559Z,0
2023-01-03T03:22:43.165Z,0
2023-01-03T03:23:43.771Z,0
2023-01-03T03:24:44.428Z,0
2023-01-03T03:25:45.120Z,0
2023-01-03T03:26:45.720Z,0
2023-01-03T03:27:46.391Z,0
2023-01-03T03:28:46.994Z,0
2023-01-03T03:29:47.597Z,0
2023-01-03T03:30:48.196Z,0
2023-01-03T03:31:48.889Z,0
2023-01-03T03:32:49.527Z,0
2023-01-03T03:33:50.132Z,0
2023-01-03T03:34:50.738Z,0
2023-01-03T03:35:51.335Z,0
2023-01-03T03:36:51.933Z,0
2023-01-03T03:37:52.537Z,0
2023-01-03T03:38:53.137Z,0
2023-01-03T03:39:53.745Z,0
2023-01-03T03:40:54.343Z,0
2023-01-03T03:41:54.951Z,0
2023-01-03T03:42:55.549Z,0
2023-01-03T03:43:56.318Z,0
2023-01-03T03:45:01.045Z,0
2023-01-03T03:45:58.551Z,0
2023-01-03T03:47:04.084Z,0
2023-01-03T03:48:00.803Z,0
2023-01-03T03:49:01.401Z,0
2023-01-03T03:50:02.093Z,0
2023-01-03T03:51:02.680Z,0
2023-01-03T03:52:03.288Z,0
2023-01-03T03:53:03.908Z,0
2023-01-03T03:54:04.498Z,0
2023-01-03T03:55:05.099Z,0
2023-01-03T03:56:05.702Z,0
2023-01-03T03:57:06.306Z,0
2023-01-03T03:58:06.905Z,0
2023-01-03T03:59:07.556Z,0
2023-01-03T04:00:08.173Z,0
2023-01-03T04:01:08.907Z,0
2023-01-03T04:02:09.650Z,0
2023-01-03T04:03:10.457Z,0
2023-01-03T04:04:11.119Z,0
2023-01-03T04:05:11.810Z,0
2023-01-03T04:06:12.402Z,0
2023-01-03T04:07:13.005Z,0
2023-01-03T04:08:13.612Z,0
2023-01-03T04:09:14.261Z,0
2023-01-03T04:10:14.935Z,0
2023-01-03T04:11:15.551Z,0
2023-01-03T04:12:16.145Z,0
2023-01-03T04:13:16.751Z,0
2023-01-03T04:14:17.351Z,0
2023-01-03T04:15:17.954Z,0
2023-01-03T04:16:18.668Z,0
2023-01-03T04:17:19.325Z,0
2023-01-03T04:18:19.910Z,0
2023-01-03T04:19:20.514Z,0
2023-01-03T04:20:21.142Z,0
2023-01-03T04:21:21.747Z,0
2023-01-03T04:22:22.345Z,0
2023-01-03T04:23:22.952Z,0
2023-01-03T04:24:23.555Z,0
2023-01-03T04:25:24.159Z,0
2023-01-03T04:26:24.769Z,0
2023-01-03T04:27:25.364Z,0
2023-01-03T04:28:25.976Z,0
2023-01-03T04:29:26.586Z,0
2023-01-03T04:30:27.181Z,0
2023-01-03T04:31:27.820Z,0
2023-01-03T04:32:28.429Z,0
2023-01-03T04:33:29.037Z,0
2023-01-03T04:34:29.636Z,0
2023-01-03T04:35:30.241Z,0
2023-01-03T04:36:30.843Z,0
2023-01-03T04:37:31.450Z,0
2023-01-03T04:38:32.057Z,0
2023-01-03T04:39:32.679Z,0
2023-01-03T04:40:33.276Z,0
2023-01-03T04:41:33.895Z,0
2023-01-03T04:42:34.496Z,0
2023-01-03T04:43:35.090Z,0
2023-01-03T04:44:35.689Z,0
2023-01-03T04:45:36.331Z,0
2023-01-03T04:46:36.959Z,0
2023-01-03T04:47:37.567Z,0
2023-01-03T04:48:38.165Z,0
2023-01-03T04:49:38.923Z,0
2023-01-03T04:50:39.534Z,0
2023-01-03T04:51:40.288Z,0
2023-01-03T04:52:40.888Z,0
2023-01-03T04:53:41.490Z,0
2023-01-03T04:54:42.091Z,0
2023-01-03T04:55:42.699Z,0
2023-01-03T04:56:43.315Z,0
2023-01-03T04:57:43.928Z,0
2023-01-03T04:58:44.577Z,0
2023-01-03T04:59:46.040Z,0
2023-01-03T05:00:46.683Z,0
2023-01-03T05:01:47.400Z,0
2023-01-03T05:02:48.083Z,0
2023-01-03T05:03:48.767Z,0
2023-01-03T05:04:49.379Z,0
2023-01-03T05:05:50.050Z,0
2023-01-03T05:06:50.666Z,0
2023-01-03T05:07:51.269Z,0
2023-01-03T05:08:51.861Z,0
2023-01-03T05:09:53.333Z,0
2023-01-03T05:10:53.906Z,0
2023-01-03T05:11:54.522Z,0
2023-01-03T05:12:55.110Z,0
2023-01-03T05:13:55.739Z,0
2023-01-03T05:14:56.479Z,0
2023-01-03T05:15:57.086Z,0
2023-01-03T05:16:57.742Z,0
2023-01-03T05:17:58.352Z,0
2023-01-03T05:18:58.944Z,0
2023-01-03T05:19:59.552Z,0
2023-01-03T05:21:00.141Z,0
2023-01-03T05:22:00.741Z,0
2023-01-03T05:23:01.333Z,0
2023-01-03T05:24:01.935Z,0
2023-01-03T05:25:02.526Z,0
2023-01-03T05:26:03.147Z,0
2023-01-03T05:27:03.745Z,0
2023-01-03T05:28:04.357Z,0
2023-01-03T05:29:04.941Z,0
2023-01-03T05:30:05.543Z,0
2023-01-03T05:31:06.135Z,0
2023-01-03T05:32:06.758Z,0
2023-01-03T05:33:07.367Z,0
2023-01-03T05:34:07.971Z,0
2023-01-03T05:35:08.565Z,0
2023-01-03T05:36:09.191Z,0
2023-01-03T05:37:09.827Z,0
2023-01-03T05:38:10.427Z,0
2023-01-03T05:39:11.021Z,0
2023-01-03T05:40:11.625Z,0
2023-01-03T05:41:12.290Z,0
2023-01-03T05:42:12.893Z,0
2023-01-03T05:43:13.486Z,0
2023-01-03T05:44:14.178Z,0
2023-01-03T05:45:14.761Z,0
2023-01-03T05:46:15.507Z,0
2023-01-03T05:47:16.129Z,0
2023-01-03T05:48:16.797Z,0
2023-01-03T05:49:17.402Z,0
2023-01-03T05:50:18.009Z,0
2023-01-03T05:51:18.589Z,0
2023-01-03T05:52:19.191Z,0
2023-01-03T05:53:19.786Z,0
2023-01-03T05:54:20.452Z,0
2023-01-03T05:55:21.101Z,0
2023-01-03T05:56:21.703Z,0
2023-01-03T05:57:22.306Z,0
2023-01-03T05:58:22.899Z,0
2023-01-03T05:59:23.543Z,0
2023-01-03T06:00:24.141Z,0
2023-01-03T06:01:24.756Z,0
2023-01-03T06:02:25.392Z,0
2023-01-03T06:03:26.078Z,0
2023-01-03T06:04:26.819Z,0
2023-01-03T06:05:27.506Z,0
2023-01-03T06:06:28.104Z,0
2023-01-03T06:07:28.759Z,0
2023-01-03T06:08:29.364Z,0
2023-01-03T06:09:29.953Z,0
2023-01-03T06:10:30.552Z,0
2023-01-03T06:11:31.475Z,0
2023-01-03T06:12:32.078Z,0
2023-01-03T06:13:32.677Z,0
2023-01-03T06:14:33.299Z,0
2023-01-03T06:15:33.885Z,0
2023-01-03T06:16:34.519Z,0
2023-01-03T06:17:35.125Z,0
2023-01-03T06:18:35.729Z,0
2023-01-03T06:19:36.375Z,0
2023-01-03T06:20:36.977Z,0
2023-01-03T06:21:37.589Z,0
2023-01-03T06:22:38.246Z,0
2023-01-03T06:23:38.894Z,0
2023-01-03T06:24:39.487Z,0
2023-01-03T06:25:40.084Z,0
2023-01-03T06:26:40.680Z,0
2023-01-03T06:27:41.436Z,0
2023-01-03T06:28:42.023Z,0
2023-01-03T06:29:42.618Z,0
2023-01-03T06:30:43.277Z,0
2023-01-03T06:31:44.725Z,0
2023-01-03T06:32:46.176Z,0
2023-01-03T06:33:47.577Z,0
2023-01-03T06:34:48.172Z,0
2023-01-03T06:35:48.761Z,0
2023-01-03T06:36:49.365Z,0
2023-01-03T06:37:50.016Z,0
2023-01-03T06:38:51.416Z,0
2023-01-03T06:39:52.019Z,0
2023-01-03T06:40:53.416Z,0
2023-01-03T06:41:54.017Z,0
2023-01-03T06:42:54.652Z,0
2023-01-03T06:44:08.343Z,0
2023-01-03T06:45:08.953Z,0
2023-01-03T06:46:09.602Z,0
2023-01-03T06:47:10.208Z,0
2023-01-03T06:48:10.812Z,0
2023-01-03T06:49:11.414Z,0
2023-01-03T06:50:12.003Z,0
2023-01-03T06:51:12.593Z,0
2023-01-03T06:52:13.194Z,0
2023-01-03T06:53:13.863Z,0
2023-01-03T06:54:14.451Z,0
2023-01-03T06:55:15.044Z,0
2023-01-03T06:56:15.708Z,0
2023-01-03T06:57:26.248Z,0
2023-01-03T06:58:17.897Z,0
2023-01-03T06:59:18.491Z,0
2023-01-03T07:00:19.100Z,0
2023-01-03T07:01:19.763Z,0
2023-01-03T07:02:20.576Z,0
2023-01-03T07:03:21.070Z,0
2023-01-03T07:04:21.717Z,0
2023-01-03T07:05:22.355Z,0
2023-01-03T07:06:22.955Z,0
2023-01-03T07:07:23.585Z,0
2023-01-03T07:08:24.178Z,0
2023-01-03T07:09:24.773Z,0
2023-01-03T07:10:25.379Z,0
2023-01-03T07:11:25.963Z,0
2023-01-03T07:12:26.588Z,0
2023-01-03T07:13:27.229Z,0
2023-01-03T07:14:27.834Z,0
2023-01-03T07:15:28.490Z,0
2023-01-03T07:16:29.183Z,0
2023-01-03T07:17:29.831Z,0
2023-01-03T07:18:30.464Z,0
2023-01-03T07:19:31.092Z,0
2023-01-03T07:20:31.703Z,0
2023-01-03T07:21:32.287Z,0
2023-01-03T07:22:32.891Z,0
2023-01-03T07:23:33.542Z,0
2023-01-03T07:24:34.163Z,0
2023-01-03T07:25:34.823Z,0
2023-01-03T07:26:35.597Z,0
2023-01-03T07:27:36.182Z,0
2023-01-03T07:28:36.841Z,0
2023-01-03T07:29:37.516Z,0
2023-01-03T07:30:38.218Z,0
2023-01-03T07:31:38.862Z,0
2023-01-03T07:32:39.533Z,0
2023-01-03T07:33:40.177Z,0
2023-01-03T07:34:40.801Z,0
2023-01-03T07:35:41.642Z,0
2023-01-03T07:36:43.116Z,0
2023-01-03T07:37:43.780Z,0
2023-01-03T07:38:44.454Z,0
2023-01-03T07:39:45.095Z,0
2023-01-03T07:40:45.736Z,0
2023-01-03T07:41:46.328Z,0
2023-01-03T07:42:47.202Z,0
2023-01-03T07:45:13.837Z,0
2023-01-03T07:46:27.421Z,0
2023-01-03T07:47:28.207Z,0
2023-01-03T07:48:28.822Z,4
2023-01-03T07:49:29.430Z,4
2023-01-03T07:50:30.108Z,4
2023-01-03T07:51:30.801Z,4
2023-01-03T07:52:31.475Z,4
2023-01-03T07:53:32.143Z,4
2023-01-03T07:54:32.782Z,4
2023-01-03T07:55:35.302Z,4
2023-01-03T07:56:34.112Z,4
2023-01-03T07:57:34.780Z,4
2023-01-03T08:01:31.541Z,4
2023-01-03T08:02:32.271Z,0
2023-01-03T08:03:32.800Z,0
2023-01-03T08:04:33.707Z,0
2023-01-03T08:05:35.434Z,0
2023-01-03T08:06:36.063Z,0
2023-01-03T08:09:09.387Z,0
2023-01-03T08:10:10.059Z,0
2023-01-03T08:13:14.743Z,0
2023-01-03T08:14:18.100Z,0
2023-01-03T08:15:16.251Z,0
2023-01-03T08:16:17.914Z,0
2023-01-03T08:17:19.223Z,0
2023-01-03T08:18:19.879Z,0
2023-01-03T08:19:20.541Z,0
2023-01-03T08:21:22.799Z,0
2023-01-03T08:22:23.460Z,0
2023-01-03T08:23:24.125Z,0
2023-01-03T08:25:40.388Z,0
2023-01-03T08:26:41.487Z,0
2023-01-03T08:27:49.809Z,4
2023-01-03T08:28:43.894Z,4
2023-01-03T08:29:44.558Z,4
2023-01-03T08:32:00.917Z,4
2023-01-03T08:33:01.686Z,4
2023-01-03T08:34:02.963Z,4
2023-01-03T08:35:04.038Z,4
2023-01-03T08:36:04.670Z,4
2023-01-03T08:37:05.262Z,4
2023-01-03T08:38:05.872Z,4
2023-01-03T08:39:06.466Z,0
2023-01-03T08:40:07.129Z,4
2023-01-03T08:41:07.712Z,4
2023-01-03T08:42:08.328Z,4
2023-01-03T08:43:08.953Z,4
2023-01-03T08:44:09.558Z,4
2023-01-03T08:45:10.147Z,4
2023-01-03T08:46:10.771Z,4
2023-01-03T08:47:11.399Z,4
2023-01-03T08:48:12.015Z,4
2023-01-03T08:49:12.644Z,4
2023-01-03T08:50:13.297Z,8
2023-01-03T08:51:13.940Z,8
2023-01-03T08:52:14.548Z,4
2023-01-03T08:53:15.210Z,4
2023-01-03T08:54:15.807Z,4
2023-01-03T08:55:16.403Z,4
2023-01-03T08:56:17.006Z,4
2023-01-03T08:57:17.596Z,4
2023-01-03T08:58:18.195Z,8
2023-01-03T08:59:18.786Z,8
2023-01-03T09:00:19.388Z,8
2023-01-03T09:01:20.049Z,8
2023-01-03T09:02:20.858Z,8
2023-01-03T09:03:21.647Z,8
2023-01-03T09:04:22.311Z,4
2023-01-03T09:05:22.903Z,4
2023-01-03T09:06:24.359Z,8
2023-01-03T09:07:24.959Z,8
2023-01-03T09:08:25.549Z,8
2023-01-03T09:09:26.149Z,8
2023-01-03T09:10:26.818Z,8
2023-01-03T09:15:28.309Z,8
2023-01-03T09:16:28.954Z,8
2023-01-03T09:17:29.538Z,8
2023-01-03T09:18:30.131Z,8
2023-01-03T09:19:31.531Z,8
2023-01-03T09:20:32.129Z,8
2023-01-03T09:21:32.732Z,8
2023-01-03T09:22:33.527Z,8
2023-01-03T09:23:34.193Z,8
2023-01-03T09:24:34.787Z,8
2023-01-03T09:25:37.270Z,8
2023-01-03T09:26:36.972Z,8
2023-01-03T09:27:37.587Z,8
2023-01-03T09:28:38.170Z,12
2023-01-03T09:29:38.770Z,12
2023-01-03T09:30:39.381Z,12
2023-01-03T09:31:40.403Z,12
2023-01-03T09:32:41.054Z,12
2023-01-03T09:33:41.668Z,12
2023-01-03T09:34:42.291Z,8
2023-01-03T09:35:42.895Z,8
2023-01-03T09:36:43.558Z,8
2023-01-03T09:37:48.851Z,8
2023-01-03T09:38:45.752Z,8
2023-01-03T09:39:46.364Z,8
2023-01-03T09:40:46.943Z,8
2023-01-03T09:41:47.607Z,8
2023-01-03T09:42:48.199Z,8
2023-01-03T09:43:49.187Z,12
2023-01-03T09:44:49.733Z,12
2023-01-03T09:45:50.338Z,12
2023-01-03T09:46:50.955Z,12
2023-01-03T09:47:51.580Z,12
2023-01-03T09:48:52.979Z,12
2023-01-03T09:50:26.628Z,12
2023-01-03T09:51:18.243Z,12
2023-01-03T09:51:57.002Z,12
2023-01-03T09:52:57.591Z,12
2023-01-03T09:53:58.238Z,12
2023-01-03T09:54:58.832Z,8
2023-01-03T09:55:59.435Z,12
2023-01-03T09:57:00.096Z,12
2023-01-03T09:58:00.682Z,12
2023-01-03T09:59:01.354Z,12
2023-01-03T10:00:01.952Z,12
2023-01-03T10:01:02.619Z,12
2023-01-03T10:02:03.342Z,12
2023-01-03T10:03:04.266Z,12
2023-01-03T10:04:04.931Z,16
2023-01-03T10:05:05.527Z,12
2023-01-03T10:06:06.128Z,16
2023-01-03T10:07:06.737Z,16
2023-01-03T10:08:07.323Z,16
2023-01-03T10:09:07.916Z,16
2023-01-03T10:10:14.074Z,20
2023-01-03T10:11:09.247Z,16
2023-01-03T10:12:09.846Z,20
2023-01-03T10:13:14.682Z,20
2023-01-03T10:14:12.029Z,16
2023-01-03T10:15:12.619Z,20
2023-01-03T10:16:13.353Z,20
2023-01-03T10:17:13.996Z,20
2023-01-03T10:18:14.600Z,16
2023-01-03T10:19:15.193Z,20
2023-01-03T10:20:15.794Z,20
2023-01-03T10:21:16.389Z,20
2023-01-03T10:22:16.994Z,20
2023-01-03T10:23:17.588Z,20
2023-01-03T10:24:18.238Z,24
2023-01-03T10:25:18.833Z,20
2023-01-03T10:26:19.435Z,24
2023-01-03T10:27:20.037Z,24
2023-01-03T10:28:20.693Z,24
2023-01-03T10:29:21.288Z,24
2023-01-03T10:30:21.891Z,24
2023-01-03T10:31:22.544Z,24
2023-01-03T10:32:23.167Z,24
2023-01-03T10:33:23.763Z,24
2023-01-03T10:34:24.360Z,24
2023-01-03T10:35:24.960Z,24
2023-01-03T10:36:25.558Z,28
2023-01-03T10:37:26.152Z,24
2023-01-03T10:38:26.763Z,24
2023-01-03T10:39:27.363Z,28
2023-01-03T10:40:28.017Z,24
2023-01-03T10:41:28.611Z,28
2023-01-03T10:42:29.220Z,28
2023-01-03T10:43:29.876Z,24
2023-01-03T10:44:30.483Z,28
2023-01-03T10:45:36.072Z,28
2023-01-03T10:46:32.802Z,28
2023-01-03T10:47:34.133Z,28
2023-01-03T10:48:52.685Z,24
2023-01-03T10:49:36.328Z,24
2023-01-03T10:50:36.992Z,24
2023-01-03T10:51:42.581Z,20
2023-01-03T10:52:39.296Z,24
2023-01-03T10:53:39.890Z,24
2023-01-03T10:54:40.496Z,24
2023-01-03T10:55:41.152Z,20
2023-01-03T10:56:41.757Z,20
2023-01-03T10:57:43.150Z,20
2023-01-03T10:58:43.902Z,20
2023-01-03T10:59:44.498Z,16
2023-01-03T11:00:45.223Z,20
2023-01-03T11:01:45.925Z,20
2023-01-03T11:02:46.784Z,20
2023-01-03T11:03:51.402Z,16
2023-01-03T11:04:49.067Z,16
2023-01-03T11:05:49.649Z,20
2023-01-03T11:06:51.103Z,16
2023-01-03T11:07:51.698Z,20
2023-01-03T11:08:52.307Z,16
2023-01-03T11:09:52.894Z,16
2023-01-03T11:10:53.500Z,16
2023-01-03T11:11:54.097Z,16
2023-01-03T11:12:54.697Z,16
2023-01-03T11:13:55.363Z,16
2023-01-03T11:14:56.017Z,16
2023-01-03T11:15:56.611Z,16
2023-01-03T11:16:57.270Z,16
2023-01-03T11:17:57.890Z,16
2023-01-03T11:18:58.497Z,12
2023-01-03T11:19:59.097Z,16
2023-01-03T11:20:59.693Z,12
2023-01-03T11:22:00.287Z,16
2023-01-03T11:23:00.891Z,16
2023-01-03T11:24:01.495Z,16
2023-01-03T11:25:02.092Z,16
2023-01-03T11:26:02.694Z,12
2023-01-03T11:27:03.347Z,12
2023-01-03T11:28:03.954Z,16
2023-01-03T11:29:04.606Z,12
2023-01-03T11:30:05.277Z,12
2023-01-03T11:31:05.880Z,12
2023-01-03T11:32:06.584Z,12
2023-01-03T11:33:07.302Z,12
2023-01-03T11:34:07.905Z,12
2023-01-03T11:35:25.214Z,12
2023-01-03T11:36:10.149Z,12
2023-01-03T11:37:10.759Z,12
2023-01-03T11:38:11.423Z,12
2023-01-03T11:39:15.623Z,12
2023-01-03T11:40:13.616Z,12
2023-01-03T11:41:15.064Z,12
2023-01-03T11:42:15.664Z,12
2023-01-03T11:43:16.277Z,12
2023-01-03T11:44:16.860Z,12
2023-01-03T11:45:17.462Z,12
2023-01-03T11:46:18.101Z,12
2023-01-03T11:47:18.742Z,12
2023-01-03T11:48:19.389Z,12
2023-01-03T11:49:19.988Z,12
2023-01-03T11:50:20.653Z,12
2023-01-03T11:51:21.265Z,12
2023-01-03T11:52:21.864Z,12
2023-01-03T11:53:22.466Z,12
2023-01-03T11:54:23.055Z,12
2023-01-03T11:55:23.711Z,16
2023-01-03T11:56:24.303Z,16
2023-01-03T11:57:25.100Z,16
2023-01-03T11:58:25.692Z,16
2023-01-03T11:59:26.301Z,16
2023-01-03T12:00:26.885Z,16
2023-01-03T12:01:27.616Z,16
2023-01-03T12:02:28.480Z,16
2023-01-03T12:03:29.154Z,16
2023-01-03T12:04:29.984Z,16
2023-01-03T12:05:30.575Z,16
2023-01-03T12:06:31.178Z,12
2023-01-03T12:07:48.956Z,16
2023-01-03T12:08:34.204Z,12
2023-01-03T12:09:34.806Z,12
2023-01-03T12:10:35.398Z,12
2023-01-03T12:11:36.014Z,12
2023-01-03T12:12:36.589Z,12
2023-01-03T12:13:37.199Z,12
2023-01-03T12:14:37.858Z,12
2023-01-03T12:15:38.511Z,12
2023-01-03T12:16:39.165Z,12
2023-01-03T12:17:39.808Z,12
2023-01-03T12:18:40.470Z,12
2023-01-03T12:19:41.073Z,12
2023-01-03T12:20:41.683Z,12
2023-01-03T12:21:42.332Z,12
2023-01-03T12:22:42.927Z,12
2023-01-03T12:23:44.327Z,12
2023-01-03T12:24:45.040Z,12
2023-01-03T12:25:45.636Z,12
2023-01-03T12:26:46.295Z,12
2023-01-03T12:27:46.902Z,12
2023-01-03T12:28:47.493Z,12
2023-01-03T12:29:48.099Z,12
2023-01-03T12:30:48.835Z,12
2023-01-03T12:31:49.587Z,12
2023-01-03T12:32:50.393Z,12
2023-01-03T12:33:51.064Z,12
2023-01-03T12:34:51.721Z,12
2023-01-03T12:35:53.176Z,12
2023-01-03T12:36:53.839Z,12
2023-01-03T12:37:54.494Z,12
2023-01-03T12:38:55.088Z,12
2023-01-03T12:39:55.764Z,12
2023-01-03T12:40:56.436Z,12
2023-01-03T12:41:57.041Z,12
2023-01-03T12:42:57.634Z,12
2023-01-03T12:43:58.240Z,12
2023-01-03T12:44:58.837Z,12
2023-01-03T12:45:59.453Z,12
2023-01-03T12:47:00.792Z,12
2023-01-03T12:48:01.419Z,12
2023-01-03T12:49:02.014Z,12
2023-01-03T12:50:02.666Z,12
2023-01-03T12:51:03.272Z,12
2023-01-03T12:52:03.877Z,12
2023-01-03T12:53:04.454Z,12
2023-01-03T12:54:05.061Z,12
2023-01-03T12:55:05.650Z,12
2023-01-03T12:56:06.249Z,12
2023-01-03T12:57:06.845Z,12
2023-01-03T12:58:07.446Z,12
2023-01-03T12:59:08.043Z,12
2023-01-03T13:00:08.659Z,12
2023-01-03T13:01:09.338Z,12
2023-01-03T13:02:10.223Z,12
2023-01-03T13:03:10.982Z,12
2023-01-03T13:04:11.768Z,12
2023-01-03T13:05:12.477Z,12
2023-01-03T13:06:13.083Z,12
2023-01-03T13:07:13.685Z,12
2023-01-03T13:08:14.288Z,12
2023-01-03T13:09:14.947Z,12
2023-01-03T13:10:15.551Z,16
2023-01-03T13:11:16.141Z,12
2023-01-03T13:12:16.744Z,16
2023-01-03T13:13:17.355Z,16
2023-01-03T13:14:17.942Z,16
2023-01-03T13:15:18.540Z,16
2023-01-03T13:16:19.216Z,16
2023-01-03T13:17:19.830Z,16
2023-01-03T13:18:20.496Z,16
2023-01-03T13:19:21.090Z,16
2023-01-03T13:20:21.692Z,16
2023-01-03T13:21:22.289Z,16
2023-01-03T13:22:22.891Z,16
2023-01-03T13:23:23.488Z,16
2023-01-03T13:24:24.090Z,16
2023-01-03T13:25:24.684Z,16
2023-01-03T13:26:25.287Z,16
2023-01-03T13:27:25.886Z,16
2023-01-03T13:28:26.591Z,16
2023-01-03T13:29:27.183Z,16
2023-01-03T13:30:27.788Z,16
2023-01-03T13:31:28.435Z,12
2023-01-03T13:32:34.663Z,12
2023-01-03T13:33:30.624Z,12
2023-01-03T13:34:32.074Z,16
2023-01-03T13:35:32.865Z,12
2023-01-03T13:36:33.606Z,12
2023-01-03T13:37:34.218Z,12
2023-01-03T13:38:34.812Z,12
2023-01-03T13:39:35.415Z,12
2023-01-03T13:41:16.056Z,12
2023-01-03T13:41:38.467Z,12
2023-01-03T13:42:39.136Z,12
2023-01-03T13:43:40.415Z,12
2023-01-03T13:44:41.061Z,12
2023-01-03T13:45:41.729Z,12
2023-01-03T13:46:42.344Z,12
2023-01-03T13:47:42.957Z,12
2023-01-03T13:48:43.555Z,12
2023-01-03T13:49:48.914Z,12
2023-01-03T13:50:45.741Z,12
2023-01-03T13:51:46.342Z,12
2023-01-03T13:52:46.935Z,12
2023-01-03T13:53:47.608Z,12
2023-01-03T13:54:48.188Z,12
2023-01-03T13:55:54.648Z,12
2023-01-03T13:56:49.451Z,16
2023-01-03T13:57:50.063Z,16
2023-01-03T13:58:50.671Z,16
2023-01-03T13:59:51.253Z,16
2023-01-03T14:00:51.846Z,16
2023-01-03T14:01:52.602Z,20
2023-01-03T14:02:53.474Z,20
2023-01-03T14:03:54.314Z,24
2023-01-03T14:04:54.997Z,24
2023-01-03T14:05:55.600Z,24
2023-01-03T14:06:56.195Z,28
2023-01-03T14:07:56.793Z,28
2023-01-03T14:08:57.387Z,28
2023-01-03T14:09:57.988Z,28
2023-01-03T14:10:58.585Z,28
2023-01-03T14:11:59.186Z,32
2023-01-03T14:12:59.780Z,32
2023-01-03T14:14:00.384Z,36
2023-01-03T14:15:00.976Z,36
2023-01-03T14:16:01.684Z,40
2023-01-03T14:17:02.307Z,40
2023-01-03T14:18:02.969Z,40
2023-01-03T14:19:03.563Z,44
2023-01-03T14:20:04.170Z,40
2023-01-03T14:21:08.995Z,44
2023-01-03T14:22:27.464Z,44
2023-01-03T14:23:31.700Z,44
2023-01-03T14:24:09.613Z,44
2023-01-03T14:25:10.206Z,48
2023-01-03T14:26:10.819Z,44
2023-01-03T14:27:16.693Z,48
2023-01-03T14:28:13.094Z,48
2023-01-03T14:29:13.688Z,48
2023-01-03T14:30:14.291Z,48
2023-01-03T14:31:14.921Z,52
2023-01-03T14:32:15.524Z,52
2023-01-03T14:33:16.119Z,52
2023-01-03T14:34:16.732Z,56
2023-01-03T14:35:17.380Z,52
2023-01-03T14:36:17.987Z,56
2023-01-03T14:37:18.578Z,56
2023-01-03T14:38:19.187Z,56
2023-01-03T14:39:19.776Z,56
2023-01-03T14:40:20.379Z,52
2023-01-03T14:41:20.977Z,52
2023-01-03T14:42:21.599Z,56
2023-01-03T14:43:22.179Z,52
2023-01-03T14:44:22.783Z,52
2023-01-03T14:45:23.376Z,52
2023-01-03T14:46:24.021Z,52
2023-01-03T14:47:24.614Z,52
2023-01-03T14:49:41.534Z,48
2023-01-03T14:50:43.009Z,44
2023-01-03T14:51:43.692Z,48
2023-01-03T14:52:44.272Z,44
2023-01-03T14:53:44.867Z,44
2023-01-03T14:54:45.475Z,44
2023-01-03T14:55:46.166Z,40
2023-01-03T14:56:46.789Z,44
2023-01-03T14:57:47.383Z,40
2023-01-03T14:58:47.962Z,24
2023-01-03T14:59:48.564Z,36
2023-01-03T15:00:49.229Z,36
2023-01-03T15:01:49.968Z,36
2023-01-03T15:02:50.715Z,36